sensor_id;sensor_type;location;lat;lon;timestamp;P1;durP1;ratioP1;P2;durP2;ratioP2
42600;SDS011;28229;48.856;9.088;2022-07-10T00:00:05;5.97;;;3.80;;
42600;SDS011;28229;48.856;9.088;2022-07-10T00:02:38;3.43;;;3.20;;
42600;SDS011;28229;48.856;9.088;2022-07-10T00:05:05;3.97;;;3.70;;
42600;SDS011;28229;48.856;9.088;2022-07-10T00:07:32;4.03;;;3.73;;
42600;SDS011;28229;48.856;9.088;2022-07-10T00:09:58;3.87;;;3.53;;
42600;SDS011;28229;48.856;9.088;2022-07-10T00:12:24;4.60;;;3.70;;
42600;SDS011;28229;48.856;9.088;2022-07-10T00:14:50;4.57;;;4.20;;
42600;SDS011;28229;48.856;9.088;2022-07-10T00:17:15;4.10;;;3.80;;
42600;SDS011;28229;48.856;9.088;2022-07-10T00:19:41;4.13;;;3.83;;
42600;SDS011;28229;48.856;9.088;2022-07-10T00:22:07;4.20;;;3.90;;
42600;SDS011;28229;48.856;9.088;2022-07-10T00:24:33;4.03;;;3.63;;
42600;SDS011;28229;48.856;9.088;2022-07-10T00:26:59;4.30;;;4.00;;
42600;SDS011;28229;48.856;9.088;2022-07-10T00:29:24;4.10;;;3.80;;
42600;SDS011;28229;48.856;9.088;2022-07-10T00:31:50;4.00;;;3.70;;
42600;SDS011;28229;48.856;9.088;2022-07-10T00:34:16;4.03;;;3.73;;
42600;SDS011;28229;48.856;9.088;2022-07-10T00:36:42;5.17;;;3.80;;
42600;SDS011;28229;48.856;9.088;2022-07-10T00:39:10;4.20;;;3.80;;
42600;SDS011;28229;48.856;9.088;2022-07-10T00:41:36;3.97;;;3.47;;
42600;SDS011;28229;48.856;9.088;2022-07-10T00:44:02;4.23;;;3.90;;
42600;SDS011;28229;48.856;9.088;2022-07-10T00:46:28;4.10;;;3.80;;
42600;SDS011;28229;48.856;9.088;2022-07-10T00:48:55;3.93;;;3.63;;
42600;SDS011;28229;48.856;9.088;2022-07-10T00:51:24;4.47;;;4.10;;
42600;SDS011;28229;48.856;9.088;2022-07-10T00:53:51;4.33;;;4.03;;
42600;SDS011;28229;48.856;9.088;2022-07-10T00:56:19;5.03;;;4.53;;
42600;SDS011;28229;48.856;9.088;2022-07-10T00:58:46;4.50;;;4.10;;
42600;SDS011;28229;48.856;9.088;2022-07-10T01:01:13;4.80;;;4.07;;
42600;SDS011;28229;48.856;9.088;2022-07-10T01:03:39;4.87;;;4.47;;
42600;SDS011;28229;48.856;9.088;2022-07-10T01:06:05;4.20;;;3.90;;
42600;SDS011;28229;48.856;9.088;2022-07-10T01:08:32;4.00;;;3.70;;
42600;SDS011;28229;48.856;9.088;2022-07-10T01:10:58;4.50;;;4.10;;
42600;SDS011;28229;48.856;9.088;2022-07-10T01:13:24;4.87;;;4.47;;
42600;SDS011;28229;48.856;9.088;2022-07-10T01:15:50;4.97;;;4.57;;
42600;SDS011;28229;48.856;9.088;2022-07-10T01:18:18;4.90;;;4.50;;
42600;SDS011;28229;48.856;9.088;2022-07-10T01:20:43;4.60;;;4.30;;
42600;SDS011;28229;48.856;9.088;2022-07-10T01:23:09;4.80;;;4.40;;
42600;SDS011;28229;48.856;9.088;2022-07-10T01:25:35;4.93;;;4.53;;
42600;SDS011;28229;48.856;9.088;2022-07-10T01:28:01;5.20;;;4.80;;
42600;SDS011;28229;48.856;9.088;2022-07-10T01:30:27;5.20;;;4.70;;
42600;SDS011;28229;48.856;9.088;2022-07-10T01:32:53;5.47;;;5.07;;
42600;SDS011;28229;48.856;9.088;2022-07-10T01:35:18;5.90;;;5.40;;
42600;SDS011;28229;48.856;9.088;2022-07-10T01:37:44;4.97;;;4.57;;
42600;SDS011;28229;48.856;9.088;2022-07-10T01:40:11;5.13;;;4.67;;
42600;SDS011;28229;48.856;9.088;2022-07-10T01:42:37;5.57;;;5.00;;
42600;SDS011;28229;48.856;9.088;2022-07-10T01:45:07;5.43;;;4.93;;
42600;SDS011;28229;48.856;9.088;2022-07-10T01:47:34;5.70;;;5.10;;
42600;SDS011;28229;48.856;9.088;2022-07-10T01:50:00;5.83;;;5.33;;
42600;SDS011;28229;48.856;9.088;2022-07-10T01:52:26;6.07;;;5.50;;
42600;SDS011;28229;48.856;9.088;2022-07-10T01:54:52;6.90;;;5.73;;
42600;SDS011;28229;48.856;9.088;2022-07-10T01:57:18;7.30;;;6.60;;
42600;SDS011;28229;48.856;9.088;2022-07-10T01:59:44;8.33;;;7.60;;
42600;SDS011;28229;48.856;9.088;2022-07-10T02:02:09;7.13;;;6.57;;
42600;SDS011;28229;48.856;9.088;2022-07-10T02:04:35;7.70;;;7.00;;
42600;SDS011;28229;48.856;9.088;2022-07-10T02:07:08;8.60;;;7.90;;
42600;SDS011;28229;48.856;9.088;2022-07-10T02:09:39;9.67;;;8.10;;
42600;SDS011;28229;48.856;9.088;2022-07-10T02:12:06;7.10;;;6.47;;
42600;SDS011;28229;48.856;9.088;2022-07-10T02:14:36;9.13;;;8.20;;
42600;SDS011;28229;48.856;9.088;2022-07-10T02:17:02;7.70;;;6.93;;
42600;SDS011;28229;48.856;9.088;2022-07-10T02:19:30;7.67;;;7.07;;
42600;SDS011;28229;48.856;9.088;2022-07-10T02:21:56;9.17;;;8.37;;
42600;SDS011;28229;48.856;9.088;2022-07-10T02:24:22;9.13;;;8.43;;
42600;SDS011;28229;48.856;9.088;2022-07-10T02:26:48;9.70;;;8.90;;
42600;SDS011;28229;48.856;9.088;2022-07-10T02:29:15;10.77;;;9.67;;
42600;SDS011;28229;48.856;9.088;2022-07-10T02:31:42;10.60;;;9.57;;
42600;SDS011;28229;48.856;9.088;2022-07-10T02:34:12;10.23;;;9.33;;
42600;SDS011;28229;48.856;9.088;2022-07-10T02:36:40;10.67;;;9.77;;
42600;SDS011;28229;48.856;9.088;2022-07-10T02:39:06;10.40;;;9.40;;
42600;SDS011;28229;48.856;9.088;2022-07-10T02:41:33;11.97;;;10.87;;
42600;SDS011;28229;48.856;9.088;2022-07-10T02:44:00;11.37;;;10.30;;
42600;SDS011;28229;48.856;9.088;2022-07-10T02:46:26;11.57;;;10.67;;
42600;SDS011;28229;48.856;9.088;2022-07-10T02:48:52;11.77;;;10.70;;
42600;SDS011;28229;48.856;9.088;2022-07-10T02:51:18;11.80;;;10.63;;
42600;SDS011;28229;48.856;9.088;2022-07-10T02:53:44;12.07;;;10.87;;
42600;SDS011;28229;48.856;9.088;2022-07-10T02:56:09;11.23;;;10.07;;
42600;SDS011;28229;48.856;9.088;2022-07-10T02:58:37;11.30;;;10.27;;
42600;SDS011;28229;48.856;9.088;2022-07-10T03:01:03;10.47;;;9.37;;
42600;SDS011;28229;48.856;9.088;2022-07-10T03:03:29;11.57;;;10.57;;
42600;SDS011;28229;48.856;9.088;2022-07-10T03:05:55;11.20;;;10.00;;
42600;SDS011;28229;48.856;9.088;2022-07-10T03:08:21;11.00;;;10.07;;
42600;SDS011;28229;48.856;9.088;2022-07-10T03:10:47;13.07;;;11.37;;
42600;SDS011;28229;48.856;9.088;2022-07-10T03:13:13;11.93;;;10.80;;
42600;SDS011;28229;48.856;9.088;2022-07-10T03:15:38;12.50;;;11.30;;
42600;SDS011;28229;48.856;9.088;2022-07-10T03:18:06;12.43;;;11.13;;
42600;SDS011;28229;48.856;9.088;2022-07-10T03:20:31;13.00;;;11.80;;
42600;SDS011;28229;48.856;9.088;2022-07-10T03:22:57;12.07;;;10.97;;
42600;SDS011;28229;48.856;9.088;2022-07-10T03:25:23;11.33;;;10.33;;
42600;SDS011;28229;48.856;9.088;2022-07-10T03:27:49;13.70;;;12.37;;
42600;SDS011;28229;48.856;9.088;2022-07-10T03:30:15;16.10;;;12.40;;
42600;SDS011;28229;48.856;9.088;2022-07-10T03:32:41;13.33;;;12.13;;
42600;SDS011;28229;48.856;9.088;2022-07-10T03:35:07;12.67;;;11.37;;
42600;SDS011;28229;48.856;9.088;2022-07-10T03:37:33;12.70;;;11.50;;
42600;SDS011;28229;48.856;9.088;2022-07-10T03:39:58;11.87;;;10.77;;
42600;SDS011;28229;48.856;9.088;2022-07-10T03:42:24;11.77;;;10.60;;
42600;SDS011;28229;48.856;9.088;2022-07-10T03:44:50;12.57;;;11.10;;
42600;SDS011;28229;48.856;9.088;2022-07-10T03:47:16;12.40;;;11.23;;
42600;SDS011;28229;48.856;9.088;2022-07-10T03:49:42;14.70;;;12.27;;
42600;SDS011;28229;48.856;9.088;2022-07-10T03:52:07;12.43;;;11.23;;
42600;SDS011;28229;48.856;9.088;2022-07-10T03:54:33;12.00;;;11.00;;
42600;SDS011;28229;48.856;9.088;2022-07-10T03:56:59;13.53;;;12.20;;
42600;SDS011;28229;48.856;9.088;2022-07-10T03:59:44;12.13;;;11.00;;
42600;SDS011;28229;48.856;9.088;2022-07-10T04:02:10;11.93;;;10.83;;
42600;SDS011;28229;48.856;9.088;2022-07-10T04:04:36;13.03;;;10.83;;
42600;SDS011;28229;48.856;9.088;2022-07-10T04:07:02;12.70;;;11.50;;
42600;SDS011;28229;48.856;9.088;2022-07-10T04:09:29;12.10;;;10.77;;
42600;SDS011;28229;48.856;9.088;2022-07-10T04:11:55;13.07;;;11.50;;
42600;SDS011;28229;48.856;9.088;2022-07-10T04:14:21;12.20;;;10.90;;
42600;SDS011;28229;48.856;9.088;2022-07-10T04:16:47;12.70;;;11.40;;
42600;SDS011;28229;48.856;9.088;2022-07-10T04:19:13;12.77;;;11.47;;
42600;SDS011;28229;48.856;9.088;2022-07-10T04:21:41;12.03;;;10.90;;
42600;SDS011;28229;48.856;9.088;2022-07-10T04:24:07;12.30;;;11.10;;
42600;SDS011;28229;48.856;9.088;2022-07-10T04:26:33;12.20;;;10.93;;
42600;SDS011;28229;48.856;9.088;2022-07-10T04:28:59;12.20;;;10.80;;
42600;SDS011;28229;48.856;9.088;2022-07-10T04:31:24;10.60;;;9.37;;
42600;SDS011;28229;48.856;9.088;2022-07-10T04:33:50;9.27;;;8.37;;
42600;SDS011;28229;48.856;9.088;2022-07-10T04:36:16;9.43;;;8.53;;
42600;SDS011;28229;48.856;9.088;2022-07-10T04:38:42;8.43;;;7.57;;
42600;SDS011;28229;48.856;9.088;2022-07-10T04:41:08;7.63;;;6.93;;
42600;SDS011;28229;48.856;9.088;2022-07-10T04:43:34;8.37;;;7.30;;
42600;SDS011;28229;48.856;9.088;2022-07-10T04:46:00;7.33;;;6.60;;
42600;SDS011;28229;48.856;9.088;2022-07-10T04:48:26;7.27;;;5.90;;
42600;SDS011;28229;48.856;9.088;2022-07-10T04:50:52;6.57;;;6.07;;
42600;SDS011;28229;48.856;9.088;2022-07-10T04:53:18;6.87;;;6.07;;
42600;SDS011;28229;48.856;9.088;2022-07-10T04:55:43;8.77;;;6.30;;
42600;SDS011;28229;48.856;9.088;2022-07-10T04:58:09;7.93;;;6.00;;
42600;SDS011;28229;48.856;9.088;2022-07-10T05:00:35;6.60;;;6.00;;
42600;SDS011;28229;48.856;9.088;2022-07-10T05:03:01;6.97;;;6.20;;
42600;SDS011;28229;48.856;9.088;2022-07-10T05:05:27;7.13;;;5.87;;
42600;SDS011;28229;48.856;9.088;2022-07-10T05:07:53;5.97;;;5.37;;
42600;SDS011;28229;48.856;9.088;2022-07-10T05:10:19;7.87;;;5.40;;
42600;SDS011;28229;48.856;9.088;2022-07-10T05:12:45;5.80;;;5.30;;
42600;SDS011;28229;48.856;9.088;2022-07-10T05:15:11;5.57;;;4.80;;
42600;SDS011;28229;48.856;9.088;2022-07-10T05:17:37;5.93;;;5.23;;
42600;SDS011;28229;48.856;9.088;2022-07-10T05:20:03;5.00;;;4.50;;
42600;SDS011;28229;48.856;9.088;2022-07-10T05:22:29;6.07;;;4.83;;
42600;SDS011;28229;48.856;9.088;2022-07-10T05:24:56;5.33;;;4.50;;
42600;SDS011;28229;48.856;9.088;2022-07-10T05:27:22;4.73;;;4.23;;
42600;SDS011;28229;48.856;9.088;2022-07-10T05:29:48;4.47;;;4.07;;
42600;SDS011;28229;48.856;9.088;2022-07-10T05:32:13;4.93;;;4.43;;
42600;SDS011;28229;48.856;9.088;2022-07-10T05:34:40;5.73;;;4.40;;
42600;SDS011;28229;48.856;9.088;2022-07-10T05:37:06;5.60;;;4.23;;
42600;SDS011;28229;48.856;9.088;2022-07-10T05:39:32;6.83;;;4.50;;
42600;SDS011;28229;48.856;9.088;2022-07-10T05:41:58;6.30;;;3.90;;
42600;SDS011;28229;48.856;9.088;2022-07-10T05:44:24;4.97;;;3.37;;
42600;SDS011;28229;48.856;9.088;2022-07-10T05:46:50;3.77;;;3.33;;
42600;SDS011;28229;48.856;9.088;2022-07-10T05:49:16;7.13;;;3.57;;
42600;SDS011;28229;48.856;9.088;2022-07-10T05:51:42;4.93;;;3.63;;
42600;SDS011;28229;48.856;9.088;2022-07-10T05:54:08;2.90;;;2.63;;
42600;SDS011;28229;48.856;9.088;2022-07-10T05:56:34;3.40;;;3.10;;
42600;SDS011;28229;48.856;9.088;2022-07-10T05:59:00;5.70;;;3.00;;
42600;SDS011;28229;48.856;9.088;2022-07-10T06:01:25;3.77;;;3.00;;
42600;SDS011;28229;48.856;9.088;2022-07-10T06:03:51;4.50;;;3.10;;
42600;SDS011;28229;48.856;9.088;2022-07-10T06:06:18;6.37;;;4.07;;
42600;SDS011;28229;48.856;9.088;2022-07-10T06:08:44;3.43;;;3.23;;
42600;SDS011;28229;48.856;9.088;2022-07-10T06:11:10;4.63;;;3.40;;
42600;SDS011;28229;48.856;9.088;2022-07-10T06:13:37;4.17;;;3.47;;
42600;SDS011;28229;48.856;9.088;2022-07-10T06:16:03;3.60;;;3.30;;
42600;SDS011;28229;48.856;9.088;2022-07-10T06:18:30;5.40;;;3.40;;
42600;SDS011;28229;48.856;9.088;2022-07-10T06:20:57;5.40;;;3.10;;
42600;SDS011;28229;48.856;9.088;2022-07-10T06:23:22;3.07;;;2.87;;
42600;SDS011;28229;48.856;9.088;2022-07-10T06:25:48;3.10;;;2.80;;
42600;SDS011;28229;48.856;9.088;2022-07-10T06:28:17;3.53;;;2.87;;
42600;SDS011;28229;48.856;9.088;2022-07-10T06:30:44;3.03;;;2.60;;
42600;SDS011;28229;48.856;9.088;2022-07-10T06:33:11;3.53;;;2.60;;
42600;SDS011;28229;48.856;9.088;2022-07-10T06:35:38;4.17;;;2.60;;
42600;SDS011;28229;48.856;9.088;2022-07-10T06:38:04;3.30;;;2.70;;
42600;SDS011;28229;48.856;9.088;2022-07-10T06:40:30;4.07;;;2.60;;
42600;SDS011;28229;48.856;9.088;2022-07-10T06:43:02;4.97;;;2.33;;
42600;SDS011;28229;48.856;9.088;2022-07-10T06:45:28;5.40;;;2.50;;
42600;SDS011;28229;48.856;9.088;2022-07-10T06:47:55;2.67;;;2.00;;
42600;SDS011;28229;48.856;9.088;2022-07-10T06:50:29;2.47;;;2.27;;
42600;SDS011;28229;48.856;9.088;2022-07-10T06:53:00;4.23;;;2.07;;
42600;SDS011;28229;48.856;9.088;2022-07-10T06:55:28;3.43;;;2.37;;
42600;SDS011;28229;48.856;9.088;2022-07-10T06:57:54;2.87;;;2.47;;
42600;SDS011;28229;48.856;9.088;2022-07-10T07:00:21;3.07;;;1.97;;
42600;SDS011;28229;48.856;9.088;2022-07-10T07:02:47;2.60;;;1.80;;
42600;SDS011;28229;48.856;9.088;2022-07-10T07:05:13;2.57;;;2.10;;
42600;SDS011;28229;48.856;9.088;2022-07-10T07:07:39;3.47;;;2.40;;
42600;SDS011;28229;48.856;9.088;2022-07-10T07:10:05;3.83;;;1.97;;
42600;SDS011;28229;48.856;9.088;2022-07-10T07:12:32;2.00;;;1.80;;
42600;SDS011;28229;48.856;9.088;2022-07-10T07:14:58;3.50;;;2.23;;
42600;SDS011;28229;48.856;9.088;2022-07-10T07:17:23;3.13;;;2.10;;
42600;SDS011;28229;48.856;9.088;2022-07-10T07:19:59;4.20;;;2.07;;
42600;SDS011;28229;48.856;9.088;2022-07-10T07:22:45;3.00;;;1.80;;
42600;SDS011;28229;48.856;9.088;2022-07-10T07:25:29;3.80;;;1.73;;
42600;SDS011;28229;48.856;9.088;2022-07-10T07:27:55;2.03;;;1.60;;
42600;SDS011;28229;48.856;9.088;2022-07-10T07:30:21;1.90;;;1.60;;
42600;SDS011;28229;48.856;9.088;2022-07-10T07:32:47;4.73;;;1.77;;
42600;SDS011;28229;48.856;9.088;2022-07-10T07:35:13;3.20;;;1.70;;
42600;SDS011;28229;48.856;9.088;2022-07-10T07:37:44;3.27;;;1.80;;
42600;SDS011;28229;48.856;9.088;2022-07-10T07:40:12;2.90;;;1.77;;
42600;SDS011;28229;48.856;9.088;2022-07-10T07:42:39;1.67;;;1.57;;
42600;SDS011;28229;48.856;9.088;2022-07-10T07:45:09;2.53;;;1.60;;
42600;SDS011;28229;48.856;9.088;2022-07-10T07:50:15;4.10;;;1.53;;
42600;SDS011;28229;48.856;9.088;2022-07-10T07:52:44;2.23;;;1.60;;
42600;SDS011;28229;48.856;9.088;2022-07-10T07:55:11;3.20;;;1.63;;
42600;SDS011;28229;48.856;9.088;2022-07-10T07:57:38;4.30;;;1.97;;
42600;SDS011;28229;48.856;9.088;2022-07-10T08:00:05;2.93;;;1.60;;
42600;SDS011;28229;48.856;9.088;2022-07-10T08:02:38;2.63;;;1.50;;
42600;SDS011;28229;48.856;9.088;2022-07-10T08:05:04;3.53;;;1.60;;
42600;SDS011;28229;48.856;9.088;2022-07-10T08:07:41;1.93;;;1.50;;
42600;SDS011;28229;48.856;9.088;2022-07-10T08:10:10;3.07;;;1.50;;
42600;SDS011;28229;48.856;9.088;2022-07-10T08:12:39;1.70;;;1.60;;
42600;SDS011;28229;48.856;9.088;2022-07-10T08:15:11;2.60;;;1.47;;
42600;SDS011;28229;48.856;9.088;2022-07-10T08:17:38;2.57;;;1.30;;
42600;SDS011;28229;48.856;9.088;2022-07-10T08:20:05;1.60;;;1.27;;
42600;SDS011;28229;48.856;9.088;2022-07-10T08:22:33;2.90;;;1.57;;
42600;SDS011;28229;48.856;9.088;2022-07-10T08:24:59;2.57;;;1.40;;
42600;SDS011;28229;48.856;9.088;2022-07-10T08:27:26;4.70;;;1.63;;
42600;SDS011;28229;48.856;9.088;2022-07-10T08:29:52;3.03;;;1.37;;
42600;SDS011;28229;48.856;9.088;2022-07-10T08:32:17;2.97;;;1.90;;
42600;SDS011;28229;48.856;9.088;2022-07-10T08:34:45;7.60;;;1.57;;
42600;SDS011;28229;48.856;9.088;2022-07-10T08:37:11;3.00;;;1.40;;
42600;SDS011;28229;48.856;9.088;2022-07-10T08:39:37;3.53;;;1.37;;
42600;SDS011;28229;48.856;9.088;2022-07-10T08:42:06;3.43;;;1.40;;
42600;SDS011;28229;48.856;9.088;2022-07-10T08:44:35;2.23;;;1.30;;
42600;SDS011;28229;48.856;9.088;2022-07-10T08:47:03;3.00;;;1.40;;
42600;SDS011;28229;48.856;9.088;2022-07-10T08:49:29;2.87;;;1.40;;
42600;SDS011;28229;48.856;9.088;2022-07-10T08:52:03;1.70;;;1.30;;
42600;SDS011;28229;48.856;9.088;2022-07-10T08:54:32;3.20;;;1.47;;
42600;SDS011;28229;48.856;9.088;2022-07-10T08:57:00;1.93;;;1.20;;
42600;SDS011;28229;48.856;9.088;2022-07-10T08:59:27;2.70;;;1.13;;
42600;SDS011;28229;48.856;9.088;2022-07-10T09:01:54;1.93;;;1.40;;
42600;SDS011;28229;48.856;9.088;2022-07-10T09:04:21;1.73;;;1.40;;
42600;SDS011;28229;48.856;9.088;2022-07-10T09:06:53;2.87;;;1.30;;
42600;SDS011;28229;48.856;9.088;2022-07-10T09:09:19;2.63;;;1.20;;
42600;SDS011;28229;48.856;9.088;2022-07-10T09:11:46;3.50;;;1.30;;
42600;SDS011;28229;48.856;9.088;2022-07-10T09:14:15;3.53;;;1.50;;
42600;SDS011;28229;48.856;9.088;2022-07-10T09:16:43;2.53;;;1.20;;
42600;SDS011;28229;48.856;9.088;2022-07-10T09:21:48;2.83;;;1.33;;
42600;SDS011;28229;48.856;9.088;2022-07-10T09:24:15;1.83;;;1.30;;
42600;SDS011;28229;48.856;9.088;2022-07-10T09:26:48;3.60;;;1.70;;
42600;SDS011;28229;48.856;9.088;2022-07-10T09:29:25;2.80;;;1.50;;
42600;SDS011;28229;48.856;9.088;2022-07-10T09:31:51;1.27;;;1.17;;
42600;SDS011;28229;48.856;9.088;2022-07-10T09:34:18;2.53;;;1.30;;
42600;SDS011;28229;48.856;9.088;2022-07-10T09:47:45;2.17;;;1.47;;
42600;SDS011;28229;48.856;9.088;2022-07-10T09:50:50;2.50;;;1.30;;
42600;SDS011;28229;48.856;9.088;2022-07-10T09:53:09;2.27;;;1.20;;
42600;SDS011;28229;48.856;9.088;2022-07-10T09:55:36;4.67;;;1.40;;
42600;SDS011;28229;48.856;9.088;2022-07-10T09:58:08;1.97;;;1.17;;
42600;SDS011;28229;48.856;9.088;2022-07-10T10:00:35;2.17;;;1.40;;
42600;SDS011;28229;48.856;9.088;2022-07-10T10:03:06;3.40;;;1.60;;
42600;SDS011;28229;48.856;9.088;2022-07-10T10:06:16;1.53;;;1.30;;
42600;SDS011;28229;48.856;9.088;2022-07-10T10:08:40;2.10;;;1.30;;
42600;SDS011;28229;48.856;9.088;2022-07-10T10:11:13;1.83;;;1.30;;
42600;SDS011;28229;48.856;9.088;2022-07-10T10:13:48;2.40;;;1.40;;
42600;SDS011;28229;48.856;9.088;2022-07-10T10:16:15;4.37;;;1.70;;
42600;SDS011;28229;48.856;9.088;2022-07-10T10:18:44;1.70;;;1.50;;
42600;SDS011;28229;48.856;9.088;2022-07-10T10:21:30;3.37;;;1.70;;
42600;SDS011;28229;48.856;9.088;2022-07-10T10:23:56;1.80;;;1.30;;
42600;SDS011;28229;48.856;9.088;2022-07-10T10:26:22;4.80;;;1.70;;
42600;SDS011;28229;48.856;9.088;2022-07-10T10:28:52;3.53;;;1.53;;
42600;SDS011;28229;48.856;9.088;2022-07-10T10:31:19;11.57;;;7.90;;
42600;SDS011;28229;48.856;9.088;2022-07-10T10:33:46;5.23;;;3.93;;
42600;SDS011;28229;48.856;9.088;2022-07-10T10:36:14;3.30;;;1.50;;
42600;SDS011;28229;48.856;9.088;2022-07-10T10:39:01;2.07;;;1.50;;
42600;SDS011;28229;48.856;9.088;2022-07-10T10:41:46;1.63;;;1.40;;
42600;SDS011;28229;48.856;9.088;2022-07-10T10:49:20;2.23;;;1.30;;
42600;SDS011;28229;48.856;9.088;2022-07-10T10:52:00;2.80;;;1.43;;
42600;SDS011;28229;48.856;9.088;2022-07-10T10:54:28;2.40;;;1.10;;
42600;SDS011;28229;48.856;9.088;2022-07-10T10:57:17;2.40;;;1.20;;
42600;SDS011;28229;48.856;9.088;2022-07-10T10:59:50;2.67;;;1.20;;
42600;SDS011;28229;48.856;9.088;2022-07-10T11:04:48;2.13;;;1.20;;
42600;SDS011;28229;48.856;9.088;2022-07-10T11:07:50;2.67;;;1.30;;
42600;SDS011;28229;48.856;9.088;2022-07-10T11:10:27;2.40;;;1.20;;
42600;SDS011;28229;48.856;9.088;2022-07-10T11:13:10;1.77;;;1.33;;
42600;SDS011;28229;48.856;9.088;2022-07-10T11:15:39;1.80;;;1.10;;
42600;SDS011;28229;48.856;9.088;2022-07-10T11:18:12;2.37;;;1.03;;
42600;SDS011;28229;48.856;9.088;2022-07-10T11:20:43;2.10;;;1.00;;
42600;SDS011;28229;48.856;9.088;2022-07-10T11:31:19;1.87;;;1.10;;
42600;SDS011;28229;48.856;9.088;2022-07-10T11:33:46;1.83;;;1.30;;
42600;SDS011;28229;48.856;9.088;2022-07-10T11:36:18;1.90;;;1.00;;
42600;SDS011;28229;48.856;9.088;2022-07-10T11:38:47;2.07;;;0.90;;
42600;SDS011;28229;48.856;9.088;2022-07-10T11:41:20;1.37;;;1.00;;
42600;SDS011;28229;48.856;9.088;2022-07-10T11:43:49;2.23;;;1.10;;
42600;SDS011;28229;48.856;9.088;2022-07-10T11:46:16;1.13;;;0.90;;
42600;SDS011;28229;48.856;9.088;2022-07-10T11:48:43;3.17;;;1.20;;
42600;SDS011;28229;48.856;9.088;2022-07-10T11:51:23;1.90;;;1.10;;
42600;SDS011;28229;48.856;9.088;2022-07-10T11:54:00;2.40;;;1.10;;
42600;SDS011;28229;48.856;9.088;2022-07-10T11:56:32;2.50;;;1.00;;
42600;SDS011;28229;48.856;9.088;2022-07-10T11:59:03;2.17;;;1.00;;
42600;SDS011;28229;48.856;9.088;2022-07-10T12:01:32;1.33;;;0.90;;
42600;SDS011;28229;48.856;9.088;2022-07-10T12:04:03;1.83;;;0.97;;
42600;SDS011;28229;48.856;9.088;2022-07-10T12:06:32;1.70;;;0.80;;
42600;SDS011;28229;48.856;9.088;2022-07-10T12:09:03;2.80;;;1.00;;
42600;SDS011;28229;48.856;9.088;2022-07-10T12:11:30;3.07;;;1.00;;
42600;SDS011;28229;48.856;9.088;2022-07-10T12:14:08;2.27;;;0.90;;
42600;SDS011;28229;48.856;9.088;2022-07-10T12:16:43;1.47;;;0.80;;
42600;SDS011;28229;48.856;9.088;2022-07-10T12:19:10;1.43;;;0.90;;
42600;SDS011;28229;48.856;9.088;2022-07-10T12:21:38;4.30;;;1.30;;
42600;SDS011;28229;48.856;9.088;2022-07-10T12:24:06;2.10;;;0.90;;
42600;SDS011;28229;48.856;9.088;2022-07-10T12:26:36;3.07;;;1.10;;
42600;SDS011;28229;48.856;9.088;2022-07-10T12:29:04;1.50;;;0.90;;
42600;SDS011;28229;48.856;9.088;2022-07-10T12:31:32;2.43;;;0.80;;
42600;SDS011;28229;48.856;9.088;2022-07-10T12:33:59;1.53;;;0.80;;
42600;SDS011;28229;48.856;9.088;2022-07-10T12:39:21;0.77;;;0.70;;
42600;SDS011;28229;48.856;9.088;2022-07-10T12:41:58;0.90;;;0.73;;
42600;SDS011;28229;48.856;9.088;2022-07-10T12:47:08;0.60;;;0.60;;
42600;SDS011;28229;48.856;9.088;2022-07-10T12:49:51;0.80;;;0.80;;
42600;SDS011;28229;48.856;9.088;2022-07-10T12:52:31;1.00;;;0.80;;
42600;SDS011;28229;48.856;9.088;2022-07-10T12:58:04;1.30;;;0.80;;
42600;SDS011;28229;48.856;9.088;2022-07-10T13:00:32;1.87;;;1.00;;
42600;SDS011;28229;48.856;9.088;2022-07-10T13:03:00;2.90;;;0.77;;
42600;SDS011;28229;48.856;9.088;2022-07-10T13:05:34;0.80;;;0.80;;
42600;SDS011;28229;48.856;9.088;2022-07-10T13:08:12;1.37;;;1.00;;
42600;SDS011;28229;48.856;9.088;2022-07-10T13:10:55;2.10;;;0.90;;
42600;SDS011;28229;48.856;9.088;2022-07-10T13:13:22;1.87;;;1.00;;
42600;SDS011;28229;48.856;9.088;2022-07-10T13:15:48;1.47;;;0.80;;
42600;SDS011;28229;48.856;9.088;2022-07-10T13:18:23;2.57;;;0.90;;
42600;SDS011;28229;48.856;9.088;2022-07-10T13:20:51;2.07;;;1.00;;
42600;SDS011;28229;48.856;9.088;2022-07-10T13:23:23;4.87;;;0.90;;
42600;SDS011;28229;48.856;9.088;2022-07-10T13:25:53;2.10;;;1.00;;
42600;SDS011;28229;48.856;9.088;2022-07-10T13:28:19;1.40;;;0.70;;
42600;SDS011;28229;48.856;9.088;2022-07-10T13:30:45;2.90;;;0.97;;
42600;SDS011;28229;48.856;9.088;2022-07-10T13:33:11;1.70;;;1.00;;
42600;SDS011;28229;48.856;9.088;2022-07-10T13:35:38;2.17;;;1.00;;
42600;SDS011;28229;48.856;9.088;2022-07-10T13:38:04;1.07;;;0.73;;
42600;SDS011;28229;48.856;9.088;2022-07-10T13:40:32;2.27;;;1.00;;
42600;SDS011;28229;48.856;9.088;2022-07-10T13:43:00;1.20;;;0.80;;
42600;SDS011;28229;48.856;9.088;2022-07-10T13:45:26;2.03;;;0.90;;
42600;SDS011;28229;48.856;9.088;2022-07-10T13:47:55;2.10;;;0.80;;
42600;SDS011;28229;48.856;9.088;2022-07-10T13:50:21;2.20;;;0.77;;
42600;SDS011;28229;48.856;9.088;2022-07-10T13:52:48;1.93;;;0.90;;
42600;SDS011;28229;48.856;9.088;2022-07-10T13:55:14;1.80;;;1.00;;
42600;SDS011;28229;48.856;9.088;2022-07-10T13:57:40;1.70;;;0.90;;
42600;SDS011;28229;48.856;9.088;2022-07-10T14:00:06;0.80;;;0.80;;
42600;SDS011;28229;48.856;9.088;2022-07-10T14:02:37;1.90;;;0.93;;
42600;SDS011;28229;48.856;9.088;2022-07-10T14:05:04;1.23;;;0.90;;
42600;SDS011;28229;48.856;9.088;2022-07-10T14:07:30;2.27;;;0.90;;
42600;SDS011;28229;48.856;9.088;2022-07-10T14:09:56;2.93;;;0.90;;
42600;SDS011;28229;48.856;9.088;2022-07-10T14:12:23;1.33;;;0.80;;
42600;SDS011;28229;48.856;9.088;2022-07-10T14:14:49;1.27;;;1.10;;
42600;SDS011;28229;48.856;9.088;2022-07-10T14:17:15;1.60;;;0.90;;
42600;SDS011;28229;48.856;9.088;2022-07-10T14:19:41;2.00;;;0.90;;
42600;SDS011;28229;48.856;9.088;2022-07-10T14:22:07;1.53;;;1.03;;
42600;SDS011;28229;48.856;9.088;2022-07-10T14:24:33;3.37;;;1.10;;
42600;SDS011;28229;48.856;9.088;2022-07-10T14:26:59;1.67;;;1.20;;
42600;SDS011;28229;48.856;9.088;2022-07-10T14:29:25;2.00;;;1.10;;
42600;SDS011;28229;48.856;9.088;2022-07-10T14:31:51;1.57;;;0.90;;
42600;SDS011;28229;48.856;9.088;2022-07-10T14:34:17;2.93;;;1.10;;
42600;SDS011;28229;48.856;9.088;2022-07-10T14:36:44;1.83;;;1.20;;
42600;SDS011;28229;48.856;9.088;2022-07-10T14:39:10;1.47;;;0.90;;
42600;SDS011;28229;48.856;9.088;2022-07-10T14:41:37;0.80;;;0.80;;
42600;SDS011;28229;48.856;9.088;2022-07-10T14:44:04;1.93;;;0.80;;
42600;SDS011;28229;48.856;9.088;2022-07-10T14:46:33;2.17;;;0.87;;
42600;SDS011;28229;48.856;9.088;2022-07-10T14:48:59;2.42;;;1.08;;
42600;SDS011;28229;48.856;9.088;2022-07-10T14:51:25;1.43;;;0.83;;
42600;SDS011;28229;48.856;9.088;2022-07-10T14:53:51;2.63;;;1.00;;
42600;SDS011;28229;48.856;9.088;2022-07-10T14:56:19;1.53;;;0.90;;
42600;SDS011;28229;48.856;9.088;2022-07-10T14:58:45;1.40;;;1.10;;
42600;SDS011;28229;48.856;9.088;2022-07-10T15:01:11;1.58;;;0.80;;
42600;SDS011;28229;48.856;9.088;2022-07-10T15:03:38;1.60;;;0.82;;
42600;SDS011;28229;48.856;9.088;2022-07-10T15:06:04;2.17;;;1.00;;
42600;SDS011;28229;48.856;9.088;2022-07-10T15:08:30;2.07;;;1.07;;
42600;SDS011;28229;48.856;9.088;2022-07-10T15:10:56;0.90;;;0.90;;
42600;SDS011;28229;48.856;9.088;2022-07-10T15:13:25;1.30;;;0.93;;
42600;SDS011;28229;48.856;9.088;2022-07-10T15:15:52;2.17;;;0.80;;
42600;SDS011;28229;48.856;9.088;2022-07-10T15:18:19;2.13;;;0.80;;
42600;SDS011;28229;48.856;9.088;2022-07-10T15:20:45;1.73;;;1.00;;
42600;SDS011;28229;48.856;9.088;2022-07-10T15:23:11;1.65;;;0.80;;
42600;SDS011;28229;48.856;9.088;2022-07-10T15:25:38;0.73;;;0.70;;
42600;SDS011;28229;48.856;9.088;2022-07-10T15:28:06;1.40;;;0.90;;